Terminal Aerodrome Forecast
Issued by NWS

Home | Current Version | Previous Version | Text Only | Print | Product List | Glossary On
Versions: 1 2 3 4 5 6 7 8 9 10 11 12 13 14 15 16 17 18 19 20 21
000
FTUS45 KRIW 101100
TAFPNA
TAF
KPNA 101132Z 1012/1112 VRB06KT P6SM VCSH SCT090 BKN200
     FM101500 31009KT P6SM VCSH SCT070 BKN100
     FM101900 31011KT P6SM VCTS SCT070CB BKN110
     FM110300 VRB06KT P6SM VCSH SCT090 BKN150
     FM110700 31006KT P6SM SCT120 BKN200
      AMD LTD TO CLD VIS AND WIND=

USA.gov is the U.S. government's official web portal to all federal, state and local government web resources and services.